<?xml version="1.0" encoding="UTF-8" standalone="no" ?>
<gpx xmlns="http://www.topografix.com/GPX/1/1" xmlns:xsi="http://www.w3.org/2001/XMLSchema-instance" xsi:schemaLocation="http://www.topografix.com/GPX/1/1 http://www.topografix.com/GPX/1/1/gpx.xsd" version="1.1" creator="VisuGPX - https://www.visugpx.com">
  <metadata>
    <name>Le Sequestre 2018-12-12</name>
    <desc><![CDATA[
]]></desc>
  </metadata>
  <trk>
    <name><![CDATA[Le Sequestre 2018-12-12]]></name>
    <extensions>
      <line xmlns="http://www.topografix.com/GPX/gpx_style/0/2">
        <width>4</width>
      </line>
    </extensions>
    <trkseg>
      <trkpt lat="43.90876" lon="2.1125">
        <ele>239.1</ele>
        <time>2018-12-12T09:05:03.000Z</time>
      </trkpt>
      <trkpt lat="43.90875" lon="2.11252">
        <ele>235.2</ele>
        <time>2018-12-12T09:05:04.000Z</time>
      </trkpt>
      <trkpt lat="43.90885" lon="2.11301">
        <ele>176.7</ele>
        <time>2018-12-12T09:06:36.000Z</time>
      </trkpt>
      <trkpt lat="43.90886" lon="2.11353">
        <ele>176.9</ele>
        <time>2018-12-12T09:07:04.000Z</time>
      </trkpt>
      <trkpt lat="43.90889" lon="2.11404">
        <ele>176.9</ele>
        <time>2018-12-12T09:07:32.000Z</time>
      </trkpt>
      <trkpt lat="43.90893" lon="2.11455">
        <ele>176.9</ele>
        <time>2018-12-12T09:07:59.000Z</time>
      </trkpt>
      <trkpt lat="43.90897" lon="2.11505">
        <ele>176.5</ele>
        <time>2018-12-12T09:08:28.000Z</time>
      </trkpt>
      <trkpt lat="43.90904" lon="2.11555">
        <ele>176.5</ele>
        <time>2018-12-12T09:08:55.000Z</time>
      </trkpt>
      <trkpt lat="43.9088" lon="2.11594">
        <ele>177.7</ele>
        <time>2018-12-12T09:09:49.000Z</time>
      </trkpt>
      <trkpt lat="43.90867" lon="2.11641">
        <ele>182</ele>
        <time>2018-12-12T09:10:55.000Z</time>
      </trkpt>
      <trkpt lat="43.90875" lon="2.11689">
        <ele>182.3</ele>
        <time>2018-12-12T09:11:25.000Z</time>
      </trkpt>
      <trkpt lat="43.90839" lon="2.11702">
        <ele>182.6</ele>
        <time>2018-12-12T09:12:00.000Z</time>
      </trkpt>
      <trkpt lat="43.90803" lon="2.11712">
        <ele>184.3</ele>
        <time>2018-12-12T09:12:29.000Z</time>
      </trkpt>
      <trkpt lat="43.90767" lon="2.11721">
        <ele>186.3</ele>
        <time>2018-12-12T09:13:01.000Z</time>
      </trkpt>
      <trkpt lat="43.90732" lon="2.11741">
        <ele>188</ele>
        <time>2018-12-12T09:13:31.000Z</time>
      </trkpt>
      <trkpt lat="43.90696" lon="2.11743">
        <ele>190.1</ele>
        <time>2018-12-12T09:14:03.000Z</time>
      </trkpt>
      <trkpt lat="43.90665" lon="2.11771">
        <ele>192</ele>
        <time>2018-12-12T09:14:33.000Z</time>
      </trkpt>
      <trkpt lat="43.90641" lon="2.11809">
        <ele>193.8</ele>
        <time>2018-12-12T09:15:02.000Z</time>
      </trkpt>
      <trkpt lat="43.90618" lon="2.1185">
        <ele>194.7</ele>
        <time>2018-12-12T09:15:32.000Z</time>
      </trkpt>
      <trkpt lat="43.90591" lon="2.11884">
        <ele>196.2</ele>
        <time>2018-12-12T09:16:06.000Z</time>
      </trkpt>
      <trkpt lat="43.90555" lon="2.11889">
        <ele>198.6</ele>
        <time>2018-12-12T09:16:39.000Z</time>
      </trkpt>
      <trkpt lat="43.9052" lon="2.11908">
        <ele>201.4</ele>
        <time>2018-12-12T09:17:12.000Z</time>
      </trkpt>
      <trkpt lat="43.90487" lon="2.11928">
        <ele>203.3</ele>
        <time>2018-12-12T09:17:45.000Z</time>
      </trkpt>
      <trkpt lat="43.90455" lon="2.1195">
        <ele>206.1</ele>
        <time>2018-12-12T09:18:20.000Z</time>
      </trkpt>
      <trkpt lat="43.90419" lon="2.11958">
        <ele>209.6</ele>
        <time>2018-12-12T09:18:55.000Z</time>
      </trkpt>
      <trkpt lat="43.9041" lon="2.11909">
        <ele>213.8</ele>
        <time>2018-12-12T09:19:32.000Z</time>
      </trkpt>
      <trkpt lat="43.90423" lon="2.11862">
        <ele>218.8</ele>
        <time>2018-12-12T09:20:08.000Z</time>
      </trkpt>
      <trkpt lat="43.90438" lon="2.11815">
        <ele>223.8</ele>
        <time>2018-12-12T09:20:49.000Z</time>
      </trkpt>
      <trkpt lat="43.90405" lon="2.11838">
        <ele>230.7</ele>
        <time>2018-12-12T09:21:42.000Z</time>
      </trkpt>
      <trkpt lat="43.90372" lon="2.11859">
        <ele>234.1</ele>
        <time>2018-12-12T09:22:21.000Z</time>
      </trkpt>
      <trkpt lat="43.90342" lon="2.1183">
        <ele>244</ele>
        <time>2018-12-12T09:25:14.000Z</time>
      </trkpt>
      <trkpt lat="43.90364" lon="2.11789">
        <ele>243.9</ele>
        <time>2018-12-12T09:25:52.000Z</time>
      </trkpt>
      <trkpt lat="43.9038" lon="2.11744">
        <ele>244.4</ele>
        <time>2018-12-12T09:26:22.000Z</time>
      </trkpt>
      <trkpt lat="43.9039" lon="2.11696">
        <ele>244.9</ele>
        <time>2018-12-12T09:26:54.000Z</time>
      </trkpt>
      <trkpt lat="43.90408" lon="2.11652">
        <ele>244.6</ele>
        <time>2018-12-12T09:28:19.000Z</time>
      </trkpt>
      <trkpt lat="43.90431" lon="2.11612">
        <ele>242.2</ele>
        <time>2018-12-12T09:28:56.000Z</time>
      </trkpt>
      <trkpt lat="43.90414" lon="2.11656">
        <ele>241.1</ele>
        <time>2018-12-12T09:33:10.000Z</time>
      </trkpt>
      <trkpt lat="43.90387" lon="2.11692">
        <ele>243.8</ele>
        <time>2018-12-12T09:33:48.000Z</time>
      </trkpt>
      <trkpt lat="43.90354" lon="2.11711">
        <ele>247.7</ele>
        <time>2018-12-12T09:34:30.000Z</time>
      </trkpt>
      <trkpt lat="43.90319" lon="2.11693">
        <ele>251</ele>
        <time>2018-12-12T09:44:02.000Z</time>
      </trkpt>
      <trkpt lat="43.90284" lon="2.11707">
        <ele>250.4</ele>
        <time>2018-12-12T09:44:28.000Z</time>
      </trkpt>
      <trkpt lat="43.90248" lon="2.11717">
        <ele>251.1</ele>
        <time>2018-12-12T09:44:57.000Z</time>
      </trkpt>
      <trkpt lat="43.90213" lon="2.11708">
        <ele>250.8</ele>
        <time>2018-12-12T09:45:29.000Z</time>
      </trkpt>
      <trkpt lat="43.90195" lon="2.11665">
        <ele>249.3</ele>
        <time>2018-12-12T09:47:06.000Z</time>
      </trkpt>
      <trkpt lat="43.90194" lon="2.11613">
        <ele>248.5</ele>
        <time>2018-12-12T09:47:31.000Z</time>
      </trkpt>
      <trkpt lat="43.90194" lon="2.11562">
        <ele>247.8</ele>
        <time>2018-12-12T09:47:56.000Z</time>
      </trkpt>
      <trkpt lat="43.90195" lon="2.1151">
        <ele>247.7</ele>
        <time>2018-12-12T09:48:22.000Z</time>
      </trkpt>
      <trkpt lat="43.90194" lon="2.1146">
        <ele>247.7</ele>
        <time>2018-12-12T09:48:50.000Z</time>
      </trkpt>
      <trkpt lat="43.90194" lon="2.11409">
        <ele>248</ele>
        <time>2018-12-12T09:49:20.000Z</time>
      </trkpt>
      <trkpt lat="43.9016" lon="2.11386">
        <ele>249.4</ele>
        <time>2018-12-12T09:50:00.000Z</time>
      </trkpt>
      <trkpt lat="43.90143" lon="2.11343">
        <ele>255.1</ele>
        <time>2018-12-12T09:51:44.000Z</time>
      </trkpt>
      <trkpt lat="43.90161" lon="2.113">
        <ele>254.7</ele>
        <time>2018-12-12T09:52:14.000Z</time>
      </trkpt>
      <trkpt lat="43.90182" lon="2.11259">
        <ele>255</ele>
        <time>2018-12-12T09:52:45.000Z</time>
      </trkpt>
      <trkpt lat="43.90204" lon="2.11218">
        <ele>255.5</ele>
        <time>2018-12-12T09:53:19.000Z</time>
      </trkpt>
      <trkpt lat="43.90221" lon="2.11173">
        <ele>254.1</ele>
        <time>2018-12-12T09:53:53.000Z</time>
      </trkpt>
      <trkpt lat="43.90237" lon="2.11127">
        <ele>253.2</ele>
        <time>2018-12-12T09:54:25.000Z</time>
      </trkpt>
      <trkpt lat="43.90253" lon="2.11082">
        <ele>251.3</ele>
        <time>2018-12-12T09:54:58.000Z</time>
      </trkpt>
      <trkpt lat="43.90267" lon="2.11035">
        <ele>249.7</ele>
        <time>2018-12-12T09:55:32.000Z</time>
      </trkpt>
      <trkpt lat="43.9028" lon="2.10986">
        <ele>249</ele>
        <time>2018-12-12T09:56:03.000Z</time>
      </trkpt>
      <trkpt lat="43.90296" lon="2.1094">
        <ele>249.4</ele>
        <time>2018-12-12T09:56:34.000Z</time>
      </trkpt>
      <trkpt lat="43.90319" lon="2.109">
        <ele>249.4</ele>
        <time>2018-12-12T09:57:03.000Z</time>
      </trkpt>
      <trkpt lat="43.90347" lon="2.10867">
        <ele>248.5</ele>
        <time>2018-12-12T09:57:32.000Z</time>
      </trkpt>
      <trkpt lat="43.90377" lon="2.10838">
        <ele>246.9</ele>
        <time>2018-12-12T09:58:04.000Z</time>
      </trkpt>
      <trkpt lat="43.90405" lon="2.10806">
        <ele>248.9</ele>
        <time>2018-12-12T09:58:35.000Z</time>
      </trkpt>
      <trkpt lat="43.90433" lon="2.10773">
        <ele>246.7</ele>
        <time>2018-12-12T09:59:07.000Z</time>
      </trkpt>
      <trkpt lat="43.9046" lon="2.10739">
        <ele>245.7</ele>
        <time>2018-12-12T09:59:40.000Z</time>
      </trkpt>
      <trkpt lat="43.9048" lon="2.10696">
        <ele>243.6</ele>
        <time>2018-12-12T10:00:13.000Z</time>
      </trkpt>
      <trkpt lat="43.90486" lon="2.10646">
        <ele>240.3</ele>
        <time>2018-12-12T10:00:47.000Z</time>
      </trkpt>
      <trkpt lat="43.90486" lon="2.10596">
        <ele>237.8</ele>
        <time>2018-12-12T10:01:17.000Z</time>
      </trkpt>
      <trkpt lat="43.90479" lon="2.10545">
        <ele>236.6</ele>
        <time>2018-12-12T10:01:49.000Z</time>
      </trkpt>
      <trkpt lat="43.90476" lon="2.10495">
        <ele>235.6</ele>
        <time>2018-12-12T10:02:22.000Z</time>
      </trkpt>
      <trkpt lat="43.90481" lon="2.10446">
        <ele>234.6</ele>
        <time>2018-12-12T10:02:52.000Z</time>
      </trkpt>
      <trkpt lat="43.9048" lon="2.10394">
        <ele>233.1</ele>
        <time>2018-12-12T10:03:25.000Z</time>
      </trkpt>
      <trkpt lat="43.90467" lon="2.10347">
        <ele>232.9</ele>
        <time>2018-12-12T10:03:59.000Z</time>
      </trkpt>
      <trkpt lat="43.90459" lon="2.10297">
        <ele>233.7</ele>
        <time>2018-12-12T10:04:34.000Z</time>
      </trkpt>
      <trkpt lat="43.90464" lon="2.10247">
        <ele>233.8</ele>
        <time>2018-12-12T10:05:04.000Z</time>
      </trkpt>
      <trkpt lat="43.90474" lon="2.10199">
        <ele>233.4</ele>
        <time>2018-12-12T10:05:37.000Z</time>
      </trkpt>
      <trkpt lat="43.90487" lon="2.10152">
        <ele>233.2</ele>
        <time>2018-12-12T10:06:06.000Z</time>
      </trkpt>
      <trkpt lat="43.905" lon="2.10105">
        <ele>232.5</ele>
        <time>2018-12-12T10:06:38.000Z</time>
      </trkpt>
      <trkpt lat="43.9052" lon="2.10063">
        <ele>232.1</ele>
        <time>2018-12-12T10:07:11.000Z</time>
      </trkpt>
      <trkpt lat="43.90537" lon="2.10017">
        <ele>231.5</ele>
        <time>2018-12-12T10:07:43.000Z</time>
      </trkpt>
      <trkpt lat="43.9055" lon="2.0997">
        <ele>231.3</ele>
        <time>2018-12-12T10:08:13.000Z</time>
      </trkpt>
      <trkpt lat="43.90543" lon="2.09921">
        <ele>228</ele>
        <time>2018-12-12T10:08:55.000Z</time>
      </trkpt>
      <trkpt lat="43.90516" lon="2.09887">
        <ele>222.7</ele>
        <time>2018-12-12T10:09:38.000Z</time>
      </trkpt>
      <trkpt lat="43.90489" lon="2.09851">
        <ele>218.7</ele>
        <time>2018-12-12T10:10:10.000Z</time>
      </trkpt>
      <trkpt lat="43.90463" lon="2.09815">
        <ele>212.3</ele>
        <time>2018-12-12T10:11:04.000Z</time>
      </trkpt>
      <trkpt lat="43.90445" lon="2.09771">
        <ele>211.8</ele>
        <time>2018-12-12T10:11:42.000Z</time>
      </trkpt>
      <trkpt lat="43.90454" lon="2.09721">
        <ele>211.6</ele>
        <time>2018-12-12T10:12:18.000Z</time>
      </trkpt>
      <trkpt lat="43.9047" lon="2.09675">
        <ele>211.1</ele>
        <time>2018-12-12T10:12:49.000Z</time>
      </trkpt>
      <trkpt lat="43.90482" lon="2.09628">
        <ele>210.2</ele>
        <time>2018-12-12T10:13:19.000Z</time>
      </trkpt>
      <trkpt lat="43.90495" lon="2.0958">
        <ele>209</ele>
        <time>2018-12-12T10:13:50.000Z</time>
      </trkpt>
      <trkpt lat="43.90499" lon="2.0953">
        <ele>208.2</ele>
        <time>2018-12-12T10:14:22.000Z</time>
      </trkpt>
      <trkpt lat="43.90496" lon="2.0948">
        <ele>207.9</ele>
        <time>2018-12-12T10:14:58.000Z</time>
      </trkpt>
      <trkpt lat="43.90499" lon="2.09429">
        <ele>208</ele>
        <time>2018-12-12T10:15:34.000Z</time>
      </trkpt>
      <trkpt lat="43.90498" lon="2.09379">
        <ele>206.9</ele>
        <time>2018-12-12T10:16:04.000Z</time>
      </trkpt>
      <trkpt lat="43.90491" lon="2.09329">
        <ele>204.4</ele>
        <time>2018-12-12T10:16:34.000Z</time>
      </trkpt>
      <trkpt lat="43.90503" lon="2.09281">
        <ele>202</ele>
        <time>2018-12-12T10:17:06.000Z</time>
      </trkpt>
      <trkpt lat="43.9052" lon="2.09235">
        <ele>201</ele>
        <time>2018-12-12T10:17:36.000Z</time>
      </trkpt>
      <trkpt lat="43.90532" lon="2.09187">
        <ele>200.2</ele>
        <time>2018-12-12T10:18:12.000Z</time>
      </trkpt>
      <trkpt lat="43.90537" lon="2.09138">
        <ele>195.3</ele>
        <time>2018-12-12T10:18:52.000Z</time>
      </trkpt>
      <trkpt lat="43.90536" lon="2.09087">
        <ele>189.6</ele>
        <time>2018-12-12T10:19:26.000Z</time>
      </trkpt>
      <trkpt lat="43.90542" lon="2.09037">
        <ele>185.1</ele>
        <time>2018-12-12T10:19:59.000Z</time>
      </trkpt>
      <trkpt lat="43.90552" lon="2.08989">
        <ele>181</ele>
        <time>2018-12-12T10:22:05.000Z</time>
      </trkpt>
      <trkpt lat="43.9057" lon="2.08945">
        <ele>179.8</ele>
        <time>2018-12-12T10:22:36.000Z</time>
      </trkpt>
      <trkpt lat="43.9059" lon="2.08903">
        <ele>177.9</ele>
        <time>2018-12-12T10:23:09.000Z</time>
      </trkpt>
      <trkpt lat="43.90617" lon="2.08867">
        <ele>177.1</ele>
        <time>2018-12-12T10:23:35.000Z</time>
      </trkpt>
      <trkpt lat="43.90645" lon="2.08836">
        <ele>176.9</ele>
        <time>2018-12-12T10:24:02.000Z</time>
      </trkpt>
      <trkpt lat="43.90677" lon="2.08813">
        <ele>177.1</ele>
        <time>2018-12-12T10:24:33.000Z</time>
      </trkpt>
      <trkpt lat="43.90712" lon="2.088">
        <ele>178.3</ele>
        <time>2018-12-12T10:25:03.000Z</time>
      </trkpt>
      <trkpt lat="43.90746" lon="2.08782">
        <ele>178.7</ele>
        <time>2018-12-12T10:25:36.000Z</time>
      </trkpt>
      <trkpt lat="43.90763" lon="2.08737">
        <ele>176</ele>
        <time>2018-12-12T10:26:09.000Z</time>
      </trkpt>
      <trkpt lat="43.9078" lon="2.08692">
        <ele>173.2</ele>
        <time>2018-12-12T10:26:39.000Z</time>
      </trkpt>
      <trkpt lat="43.90788" lon="2.08643">
        <ele>170.9</ele>
        <time>2018-12-12T10:27:23.000Z</time>
      </trkpt>
      <trkpt lat="43.90761" lon="2.0861">
        <ele>170</ele>
        <time>2018-12-12T10:27:56.000Z</time>
      </trkpt>
      <trkpt lat="43.90734" lon="2.08574">
        <ele>169.6</ele>
        <time>2018-12-12T10:28:28.000Z</time>
      </trkpt>
      <trkpt lat="43.90708" lon="2.08538">
        <ele>169.5</ele>
        <time>2018-12-12T10:28:59.000Z</time>
      </trkpt>
      <trkpt lat="43.90682" lon="2.08503">
        <ele>169.8</ele>
        <time>2018-12-12T10:29:32.000Z</time>
      </trkpt>
      <trkpt lat="43.90656" lon="2.08468">
        <ele>170.9</ele>
        <time>2018-12-12T10:30:04.000Z</time>
      </trkpt>
      <trkpt lat="43.90635" lon="2.08425">
        <ele>172</ele>
        <time>2018-12-12T10:30:35.000Z</time>
      </trkpt>
      <trkpt lat="43.90625" lon="2.08377">
        <ele>174.4</ele>
        <time>2018-12-12T10:31:12.000Z</time>
      </trkpt>
      <trkpt lat="43.90599" lon="2.0834">
        <ele>179</ele>
        <time>2018-12-12T10:32:04.000Z</time>
      </trkpt>
      <trkpt lat="43.90565" lon="2.08325">
        <ele>182.8</ele>
        <time>2018-12-12T10:32:41.000Z</time>
      </trkpt>
      <trkpt lat="43.90529" lon="2.08311">
        <ele>187.2</ele>
        <time>2018-12-12T10:33:20.000Z</time>
      </trkpt>
      <trkpt lat="43.90492" lon="2.08304">
        <ele>190.6</ele>
        <time>2018-12-12T10:33:56.000Z</time>
      </trkpt>
      <trkpt lat="43.90456" lon="2.08296">
        <ele>193.7</ele>
        <time>2018-12-12T10:34:29.000Z</time>
      </trkpt>
      <trkpt lat="43.9042" lon="2.08304">
        <ele>195.8</ele>
        <time>2018-12-12T10:35:01.000Z</time>
      </trkpt>
      <trkpt lat="43.90384" lon="2.08312">
        <ele>198.1</ele>
        <time>2018-12-12T10:35:33.000Z</time>
      </trkpt>
      <trkpt lat="43.90362" lon="2.08353">
        <ele>200.1</ele>
        <time>2018-12-12T10:36:09.000Z</time>
      </trkpt>
      <trkpt lat="43.90326" lon="2.08356">
        <ele>199.6</ele>
        <time>2018-12-12T10:41:33.000Z</time>
      </trkpt>
      <trkpt lat="43.90292" lon="2.08337">
        <ele>196.5</ele>
        <time>2018-12-12T10:42:06.000Z</time>
      </trkpt>
      <trkpt lat="43.90258" lon="2.08318">
        <ele>192.7</ele>
        <time>2018-12-12T10:42:39.000Z</time>
      </trkpt>
      <trkpt lat="43.90224" lon="2.083">
        <ele>191.5</ele>
        <time>2018-12-12T10:43:12.000Z</time>
      </trkpt>
      <trkpt lat="43.9019" lon="2.08283">
        <ele>191.8</ele>
        <time>2018-12-12T10:43:47.000Z</time>
      </trkpt>
      <trkpt lat="43.90154" lon="2.08294">
        <ele>191.6</ele>
        <time>2018-12-12T10:44:29.000Z</time>
      </trkpt>
      <trkpt lat="43.90122" lon="2.08319">
        <ele>190.9</ele>
        <time>2018-12-12T10:45:05.000Z</time>
      </trkpt>
      <trkpt lat="43.90092" lon="2.08347">
        <ele>190.6</ele>
        <time>2018-12-12T10:45:39.000Z</time>
      </trkpt>
      <trkpt lat="43.90067" lon="2.08383">
        <ele>191</ele>
        <time>2018-12-12T10:46:16.000Z</time>
      </trkpt>
      <trkpt lat="43.90045" lon="2.08424">
        <ele>191.6</ele>
        <time>2018-12-12T10:46:51.000Z</time>
      </trkpt>
      <trkpt lat="43.90022" lon="2.08463">
        <ele>192.3</ele>
        <time>2018-12-12T10:47:27.000Z</time>
      </trkpt>
      <trkpt lat="43.89999" lon="2.08504">
        <ele>192.7</ele>
        <time>2018-12-12T10:48:00.000Z</time>
      </trkpt>
      <trkpt lat="43.89974" lon="2.08541">
        <ele>192.7</ele>
        <time>2018-12-12T10:48:32.000Z</time>
      </trkpt>
      <trkpt lat="43.89948" lon="2.08576">
        <ele>192</ele>
        <time>2018-12-12T10:49:07.000Z</time>
      </trkpt>
      <trkpt lat="43.89921" lon="2.08611">
        <ele>191.8</ele>
        <time>2018-12-12T10:49:40.000Z</time>
      </trkpt>
      <trkpt lat="43.89897" lon="2.08648">
        <ele>192.9</ele>
        <time>2018-12-12T10:50:14.000Z</time>
      </trkpt>
      <trkpt lat="43.89871" lon="2.08685">
        <ele>193.2</ele>
        <time>2018-12-12T10:50:46.000Z</time>
      </trkpt>
      <trkpt lat="43.89835" lon="2.08693">
        <ele>192</ele>
        <time>2018-12-12T10:51:19.000Z</time>
      </trkpt>
      <trkpt lat="43.89805" lon="2.08723">
        <ele>193.3</ele>
        <time>2018-12-12T10:51:55.000Z</time>
      </trkpt>
      <trkpt lat="43.89773" lon="2.08748">
        <ele>195</ele>
        <time>2018-12-12T10:52:29.000Z</time>
      </trkpt>
      <trkpt lat="43.89743" lon="2.08777">
        <ele>195.5</ele>
        <time>2018-12-12T10:53:02.000Z</time>
      </trkpt>
      <trkpt lat="43.89717" lon="2.08813">
        <ele>195.3</ele>
        <time>2018-12-12T10:53:37.000Z</time>
      </trkpt>
      <trkpt lat="43.8968" lon="2.08818">
        <ele>196.6</ele>
        <time>2018-12-12T10:54:18.000Z</time>
      </trkpt>
      <trkpt lat="43.89644" lon="2.08822">
        <ele>198.7</ele>
        <time>2018-12-12T10:54:52.000Z</time>
      </trkpt>
      <trkpt lat="43.89618" lon="2.08857">
        <ele>200.7</ele>
        <time>2018-12-12T10:55:28.000Z</time>
      </trkpt>
      <trkpt lat="43.89595" lon="2.08897">
        <ele>200.2</ele>
        <time>2018-12-12T10:56:04.000Z</time>
      </trkpt>
      <trkpt lat="43.89559" lon="2.08904">
        <ele>198.5</ele>
        <time>2018-12-12T10:56:40.000Z</time>
      </trkpt>
      <trkpt lat="43.89525" lon="2.08919">
        <ele>199.6</ele>
        <time>2018-12-12T10:57:21.000Z</time>
      </trkpt>
      <trkpt lat="43.89488" lon="2.08926">
        <ele>200.3</ele>
        <time>2018-12-12T10:58:04.000Z</time>
      </trkpt>
      <trkpt lat="43.89452" lon="2.08916">
        <ele>201</ele>
        <time>2018-12-12T10:58:33.000Z</time>
      </trkpt>
      <trkpt lat="43.89416" lon="2.08918">
        <ele>199.6</ele>
        <time>2018-12-12T10:59:12.000Z</time>
      </trkpt>
      <trkpt lat="43.89385" lon="2.08893">
        <ele>196</ele>
        <time>2018-12-12T10:59:48.000Z</time>
      </trkpt>
      <trkpt lat="43.89354" lon="2.08866">
        <ele>191.8</ele>
        <time>2018-12-12T11:00:30.000Z</time>
      </trkpt>
      <trkpt lat="43.89334" lon="2.08824">
        <ele>189.4</ele>
        <time>2018-12-12T11:00:58.000Z</time>
      </trkpt>
      <trkpt lat="43.89328" lon="2.08774">
        <ele>187.5</ele>
        <time>2018-12-12T11:01:36.000Z</time>
      </trkpt>
      <trkpt lat="43.89326" lon="2.08723">
        <ele>186.8</ele>
        <time>2018-12-12T11:02:05.000Z</time>
      </trkpt>
      <trkpt lat="43.89321" lon="2.08673">
        <ele>188.9</ele>
        <time>2018-12-12T11:02:37.000Z</time>
      </trkpt>
      <trkpt lat="43.89348" lon="2.08639">
        <ele>192.5</ele>
        <time>2018-12-12T11:03:11.000Z</time>
      </trkpt>
      <trkpt lat="43.89381" lon="2.08616">
        <ele>194.8</ele>
        <time>2018-12-12T11:03:46.000Z</time>
      </trkpt>
      <trkpt lat="43.89416" lon="2.08602">
        <ele>196.5</ele>
        <time>2018-12-12T11:05:16.000Z</time>
      </trkpt>
      <trkpt lat="43.89452" lon="2.08592">
        <ele>196.4</ele>
        <time>2018-12-12T11:05:54.000Z</time>
      </trkpt>
      <trkpt lat="43.89488" lon="2.08589">
        <ele>195.8</ele>
        <time>2018-12-12T11:06:22.000Z</time>
      </trkpt>
      <trkpt lat="43.89521" lon="2.08569">
        <ele>194.7</ele>
        <time>2018-12-12T11:06:59.000Z</time>
      </trkpt>
      <trkpt lat="43.89555" lon="2.0855">
        <ele>195.6</ele>
        <time>2018-12-12T11:07:35.000Z</time>
      </trkpt>
      <trkpt lat="43.89587" lon="2.08526">
        <ele>196.9</ele>
        <time>2018-12-12T11:08:10.000Z</time>
      </trkpt>
      <trkpt lat="43.8962" lon="2.08505">
        <ele>198</ele>
        <time>2018-12-12T11:08:44.000Z</time>
      </trkpt>
      <trkpt lat="43.89653" lon="2.08481">
        <ele>198.2</ele>
        <time>2018-12-12T11:09:15.000Z</time>
      </trkpt>
      <trkpt lat="43.89683" lon="2.08452">
        <ele>198.2</ele>
        <time>2018-12-12T11:09:46.000Z</time>
      </trkpt>
      <trkpt lat="43.89707" lon="2.08414">
        <ele>198.6</ele>
        <time>2018-12-12T11:10:17.000Z</time>
      </trkpt>
      <trkpt lat="43.89727" lon="2.08371">
        <ele>201.2</ele>
        <time>2018-12-12T11:10:49.000Z</time>
      </trkpt>
      <trkpt lat="43.89752" lon="2.08334">
        <ele>202.4</ele>
        <time>2018-12-12T11:11:19.000Z</time>
      </trkpt>
      <trkpt lat="43.89774" lon="2.08294">
        <ele>202.8</ele>
        <time>2018-12-12T11:11:48.000Z</time>
      </trkpt>
      <trkpt lat="43.89794" lon="2.08251">
        <ele>203.7</ele>
        <time>2018-12-12T11:12:19.000Z</time>
      </trkpt>
      <trkpt lat="43.89816" lon="2.08211">
        <ele>204</ele>
        <time>2018-12-12T11:12:49.000Z</time>
      </trkpt>
      <trkpt lat="43.89836" lon="2.08169">
        <ele>203.9</ele>
        <time>2018-12-12T11:13:21.000Z</time>
      </trkpt>
      <trkpt lat="43.89847" lon="2.0812">
        <ele>205.5</ele>
        <time>2018-12-12T11:14:03.000Z</time>
      </trkpt>
      <trkpt lat="43.89854" lon="2.0807">
        <ele>208.4</ele>
        <time>2018-12-12T11:14:40.000Z</time>
      </trkpt>
      <trkpt lat="43.89835" lon="2.08025">
        <ele>211.5</ele>
        <time>2018-12-12T11:15:40.000Z</time>
      </trkpt>
      <trkpt lat="43.89811" lon="2.07986">
        <ele>213.4</ele>
        <time>2018-12-12T11:16:07.000Z</time>
      </trkpt>
      <trkpt lat="43.89775" lon="2.07981">
        <ele>218.8</ele>
        <time>2018-12-12T11:20:53.000Z</time>
      </trkpt>
      <trkpt lat="43.89749" lon="2.08018">
        <ele>222.2</ele>
        <time>2018-12-12T11:21:30.000Z</time>
      </trkpt>
      <trkpt lat="43.89722" lon="2.08053">
        <ele>227.4</ele>
        <time>2018-12-12T11:22:10.000Z</time>
      </trkpt>
      <trkpt lat="43.89694" lon="2.08085">
        <ele>230.9</ele>
        <time>2018-12-12T11:22:39.000Z</time>
      </trkpt>
      <trkpt lat="43.89666" lon="2.0812">
        <ele>233.6</ele>
        <time>2018-12-12T11:23:09.000Z</time>
      </trkpt>
      <trkpt lat="43.89641" lon="2.08156">
        <ele>234.9</ele>
        <time>2018-12-12T11:23:40.000Z</time>
      </trkpt>
      <trkpt lat="43.89605" lon="2.08166">
        <ele>237.6</ele>
        <time>2018-12-12T11:24:19.000Z</time>
      </trkpt>
      <trkpt lat="43.89572" lon="2.08186">
        <ele>239.5</ele>
        <time>2018-12-12T11:24:51.000Z</time>
      </trkpt>
      <trkpt lat="43.89543" lon="2.08218">
        <ele>241.6</ele>
        <time>2018-12-12T11:25:26.000Z</time>
      </trkpt>
      <trkpt lat="43.8951" lon="2.08244">
        <ele>243</ele>
        <time>2018-12-12T11:25:57.000Z</time>
      </trkpt>
      <trkpt lat="43.89473" lon="2.08234">
        <ele>244.3</ele>
        <time>2018-12-12T11:26:22.000Z</time>
      </trkpt>
      <trkpt lat="43.89437" lon="2.08232">
        <ele>246.9</ele>
        <time>2018-12-12T11:26:59.000Z</time>
      </trkpt>
      <trkpt lat="43.89401" lon="2.08221">
        <ele>249.2</ele>
        <time>2018-12-12T11:27:32.000Z</time>
      </trkpt>
      <trkpt lat="43.89361" lon="2.08222">
        <ele>254</ele>
        <time>2018-12-12T11:28:23.000Z</time>
      </trkpt>
      <trkpt lat="43.89325" lon="2.08232">
        <ele>256.8</ele>
        <time>2018-12-12T11:28:54.000Z</time>
      </trkpt>
      <trkpt lat="43.89288" lon="2.08234">
        <ele>259</ele>
        <time>2018-12-12T11:29:28.000Z</time>
      </trkpt>
      <trkpt lat="43.89255" lon="2.08214">
        <ele>260.6</ele>
        <time>2018-12-12T11:31:38.000Z</time>
      </trkpt>
      <trkpt lat="43.89233" lon="2.08174">
        <ele>261.4</ele>
        <time>2018-12-12T11:32:08.000Z</time>
      </trkpt>
      <trkpt lat="43.8921" lon="2.08135">
        <ele>261.6</ele>
        <time>2018-12-12T11:32:36.000Z</time>
      </trkpt>
      <trkpt lat="43.89196" lon="2.08082">
        <ele>260.1</ele>
        <time>2018-12-12T12:04:40.000Z</time>
      </trkpt>
      <trkpt lat="43.89161" lon="2.08099">
        <ele>260.1</ele>
        <time>2018-12-12T12:05:07.000Z</time>
      </trkpt>
      <trkpt lat="43.89124" lon="2.081">
        <ele>260.9</ele>
        <time>2018-12-12T12:05:45.000Z</time>
      </trkpt>
      <trkpt lat="43.89089" lon="2.08112">
        <ele>262.9</ele>
        <time>2018-12-12T12:06:21.000Z</time>
      </trkpt>
      <trkpt lat="43.89055" lon="2.0813">
        <ele>266</ele>
        <time>2018-12-12T12:07:01.000Z</time>
      </trkpt>
      <trkpt lat="43.89019" lon="2.08143">
        <ele>267.8</ele>
        <time>2018-12-12T12:07:39.000Z</time>
      </trkpt>
      <trkpt lat="43.88989" lon="2.0817">
        <ele>268.8</ele>
        <time>2018-12-12T12:08:14.000Z</time>
      </trkpt>
      <trkpt lat="43.88955" lon="2.08191">
        <ele>269.9</ele>
        <time>2018-12-12T12:08:48.000Z</time>
      </trkpt>
      <trkpt lat="43.88926" lon="2.0822">
        <ele>271.4</ele>
        <time>2018-12-12T12:09:21.000Z</time>
      </trkpt>
      <trkpt lat="43.88892" lon="2.0824">
        <ele>272.1</ele>
        <time>2018-12-12T12:09:45.000Z</time>
      </trkpt>
      <trkpt lat="43.88856" lon="2.08245">
        <ele>272.7</ele>
        <time>2018-12-12T12:10:14.000Z</time>
      </trkpt>
      <trkpt lat="43.8882" lon="2.08255">
        <ele>272.8</ele>
        <time>2018-12-12T12:10:43.000Z</time>
      </trkpt>
      <trkpt lat="43.88785" lon="2.08263">
        <ele>272.8</ele>
        <time>2018-12-12T12:11:16.000Z</time>
      </trkpt>
      <trkpt lat="43.88752" lon="2.08237">
        <ele>272.2</ele>
        <time>2018-12-12T12:11:49.000Z</time>
      </trkpt>
      <trkpt lat="43.88724" lon="2.08205">
        <ele>269.2</ele>
        <time>2018-12-12T12:12:19.000Z</time>
      </trkpt>
      <trkpt lat="43.88693" lon="2.08233">
        <ele>264.5</ele>
        <time>2018-12-12T12:13:24.000Z</time>
      </trkpt>
      <trkpt lat="43.88669" lon="2.08272">
        <ele>263</ele>
        <time>2018-12-12T12:13:55.000Z</time>
      </trkpt>
      <trkpt lat="43.88637" lon="2.08295">
        <ele>261.7</ele>
        <time>2018-12-12T12:14:25.000Z</time>
      </trkpt>
      <trkpt lat="43.88602" lon="2.08278">
        <ele>258.4</ele>
        <time>2018-12-12T12:14:58.000Z</time>
      </trkpt>
      <trkpt lat="43.88568" lon="2.08298">
        <ele>255.3</ele>
        <time>2018-12-12T12:15:30.000Z</time>
      </trkpt>
      <trkpt lat="43.88539" lon="2.08329">
        <ele>253.2</ele>
        <time>2018-12-12T12:16:00.000Z</time>
      </trkpt>
      <trkpt lat="43.88506" lon="2.08351">
        <ele>251.9</ele>
        <time>2018-12-12T12:16:32.000Z</time>
      </trkpt>
      <trkpt lat="43.88474" lon="2.08375">
        <ele>251.2</ele>
        <time>2018-12-12T12:17:03.000Z</time>
      </trkpt>
      <trkpt lat="43.88447" lon="2.08408">
        <ele>251.5</ele>
        <time>2018-12-12T12:17:36.000Z</time>
      </trkpt>
      <trkpt lat="43.88419" lon="2.0844">
        <ele>252</ele>
        <time>2018-12-12T12:18:07.000Z</time>
      </trkpt>
      <trkpt lat="43.8839" lon="2.08471">
        <ele>250.7</ele>
        <time>2018-12-12T12:18:37.000Z</time>
      </trkpt>
      <trkpt lat="43.88362" lon="2.08504">
        <ele>247.1</ele>
        <time>2018-12-12T12:19:08.000Z</time>
      </trkpt>
      <trkpt lat="43.88337" lon="2.0854">
        <ele>242.8</ele>
        <time>2018-12-12T12:19:45.000Z</time>
      </trkpt>
      <trkpt lat="43.88334" lon="2.0859">
        <ele>237.3</ele>
        <time>2018-12-12T12:20:27.000Z</time>
      </trkpt>
      <trkpt lat="43.88352" lon="2.08636">
        <ele>233.9</ele>
        <time>2018-12-12T12:21:00.000Z</time>
      </trkpt>
      <trkpt lat="43.8837" lon="2.0868">
        <ele>230.3</ele>
        <time>2018-12-12T12:21:31.000Z</time>
      </trkpt>
      <trkpt lat="43.8839" lon="2.08722">
        <ele>226.2</ele>
        <time>2018-12-12T12:22:04.000Z</time>
      </trkpt>
      <trkpt lat="43.88407" lon="2.08767">
        <ele>222.5</ele>
        <time>2018-12-12T12:22:35.000Z</time>
      </trkpt>
      <trkpt lat="43.88431" lon="2.08806">
        <ele>219.5</ele>
        <time>2018-12-12T12:23:07.000Z</time>
      </trkpt>
      <trkpt lat="43.88459" lon="2.08838">
        <ele>217.1</ele>
        <time>2018-12-12T12:23:39.000Z</time>
      </trkpt>
      <trkpt lat="43.88485" lon="2.08874">
        <ele>215.3</ele>
        <time>2018-12-12T12:24:08.000Z</time>
      </trkpt>
      <trkpt lat="43.88506" lon="2.08915">
        <ele>213.7</ele>
        <time>2018-12-12T12:24:39.000Z</time>
      </trkpt>
      <trkpt lat="43.88514" lon="2.08964">
        <ele>212.2</ele>
        <time>2018-12-12T12:25:09.000Z</time>
      </trkpt>
      <trkpt lat="43.88527" lon="2.09011">
        <ele>210.8</ele>
        <time>2018-12-12T12:25:39.000Z</time>
      </trkpt>
      <trkpt lat="43.88548" lon="2.09052">
        <ele>208.5</ele>
        <time>2018-12-12T12:26:09.000Z</time>
      </trkpt>
      <trkpt lat="43.8857" lon="2.09093">
        <ele>206.4</ele>
        <time>2018-12-12T12:26:41.000Z</time>
      </trkpt>
      <trkpt lat="43.88606" lon="2.09101">
        <ele>203.9</ele>
        <time>2018-12-12T12:27:19.000Z</time>
      </trkpt>
      <trkpt lat="43.8863" lon="2.09063">
        <ele>204.9</ele>
        <time>2018-12-12T12:28:11.000Z</time>
      </trkpt>
      <trkpt lat="43.88651" lon="2.09022">
        <ele>207.5</ele>
        <time>2018-12-12T12:28:47.000Z</time>
      </trkpt>
      <trkpt lat="43.88674" lon="2.08983">
        <ele>208.1</ele>
        <time>2018-12-12T12:29:18.000Z</time>
      </trkpt>
      <trkpt lat="43.88708" lon="2.08962">
        <ele>207.8</ele>
        <time>2018-12-12T12:29:57.000Z</time>
      </trkpt>
      <trkpt lat="43.88739" lon="2.08937">
        <ele>206.7</ele>
        <time>2018-12-12T12:30:34.000Z</time>
      </trkpt>
      <trkpt lat="43.88773" lon="2.08915">
        <ele>206.3</ele>
        <time>2018-12-12T12:31:16.000Z</time>
      </trkpt>
      <trkpt lat="43.88801" lon="2.08882">
        <ele>204.9</ele>
        <time>2018-12-12T12:31:44.000Z</time>
      </trkpt>
      <trkpt lat="43.8883" lon="2.08853">
        <ele>207.5</ele>
        <time>2018-12-12T12:32:32.000Z</time>
      </trkpt>
      <trkpt lat="43.88844" lon="2.08806">
        <ele>213.7</ele>
        <time>2018-12-12T12:33:27.000Z</time>
      </trkpt>
      <trkpt lat="43.88865" lon="2.08764">
        <ele>217.5</ele>
        <time>2018-12-12T12:33:57.000Z</time>
      </trkpt>
      <trkpt lat="43.88894" lon="2.08734">
        <ele>219.8</ele>
        <time>2018-12-12T12:34:35.000Z</time>
      </trkpt>
      <trkpt lat="43.88928" lon="2.08716">
        <ele>221</ele>
        <time>2018-12-12T12:35:09.000Z</time>
      </trkpt>
      <trkpt lat="43.88962" lon="2.08699">
        <ele>220.3</ele>
        <time>2018-12-12T12:35:35.000Z</time>
      </trkpt>
      <trkpt lat="43.88997" lon="2.08685">
        <ele>218.5</ele>
        <time>2018-12-12T12:36:13.000Z</time>
      </trkpt>
      <trkpt lat="43.8903" lon="2.08663">
        <ele>219.2</ele>
        <time>2018-12-12T12:36:56.000Z</time>
      </trkpt>
      <trkpt lat="43.89059" lon="2.08633">
        <ele>221.3</ele>
        <time>2018-12-12T12:37:31.000Z</time>
      </trkpt>
      <trkpt lat="43.89094" lon="2.0862">
        <ele>222</ele>
        <time>2018-12-12T12:38:02.000Z</time>
      </trkpt>
      <trkpt lat="43.8913" lon="2.0861">
        <ele>221.8</ele>
        <time>2018-12-12T12:38:37.000Z</time>
      </trkpt>
      <trkpt lat="43.89166" lon="2.08601">
        <ele>220.5</ele>
        <time>2018-12-12T12:39:09.000Z</time>
      </trkpt>
      <trkpt lat="43.89201" lon="2.08611">
        <ele>218</ele>
        <time>2018-12-12T12:39:41.000Z</time>
      </trkpt>
      <trkpt lat="43.89235" lon="2.08631">
        <ele>214.3</ele>
        <time>2018-12-12T12:40:22.000Z</time>
      </trkpt>
      <trkpt lat="43.8927" lon="2.08643">
        <ele>209.1</ele>
        <time>2018-12-12T12:41:06.000Z</time>
      </trkpt>
      <trkpt lat="43.89306" lon="2.08652">
        <ele>204.8</ele>
        <time>2018-12-12T12:41:40.000Z</time>
      </trkpt>
      <trkpt lat="43.89333" lon="2.08685">
        <ele>199.1</ele>
        <time>2018-12-12T12:42:18.000Z</time>
      </trkpt>
      <trkpt lat="43.89337" lon="2.08736">
        <ele>195.1</ele>
        <time>2018-12-12T12:42:48.000Z</time>
      </trkpt>
      <trkpt lat="43.89337" lon="2.08786">
        <ele>192.5</ele>
        <time>2018-12-12T12:43:31.000Z</time>
      </trkpt>
      <trkpt lat="43.89341" lon="2.08836">
        <ele>192.5</ele>
        <time>2018-12-12T12:44:07.000Z</time>
      </trkpt>
      <trkpt lat="43.89374" lon="2.08857">
        <ele>194.3</ele>
        <time>2018-12-12T12:44:39.000Z</time>
      </trkpt>
      <trkpt lat="43.89396" lon="2.08898">
        <ele>197.9</ele>
        <time>2018-12-12T12:45:16.000Z</time>
      </trkpt>
      <trkpt lat="43.89432" lon="2.08897">
        <ele>201.8</ele>
        <time>2018-12-12T12:45:53.000Z</time>
      </trkpt>
      <trkpt lat="43.89469" lon="2.08904">
        <ele>204.8</ele>
        <time>2018-12-12T12:46:26.000Z</time>
      </trkpt>
      <trkpt lat="43.89497" lon="2.08936">
        <ele>207.5</ele>
        <time>2018-12-12T12:47:03.000Z</time>
      </trkpt>
      <trkpt lat="43.89504" lon="2.08986">
        <ele>210.7</ele>
        <time>2018-12-12T12:47:36.000Z</time>
      </trkpt>
      <trkpt lat="43.89468" lon="2.08998">
        <ele>214</ele>
        <time>2018-12-12T12:48:06.000Z</time>
      </trkpt>
      <trkpt lat="43.8944" lon="2.09029">
        <ele>219</ele>
        <time>2018-12-12T12:48:58.000Z</time>
      </trkpt>
      <trkpt lat="43.89433" lon="2.09078">
        <ele>221.6</ele>
        <time>2018-12-12T12:49:35.000Z</time>
      </trkpt>
      <trkpt lat="43.89426" lon="2.09127">
        <ele>224.5</ele>
        <time>2018-12-12T12:50:11.000Z</time>
      </trkpt>
      <trkpt lat="43.89428" lon="2.09178">
        <ele>228</ele>
        <time>2018-12-12T12:50:46.000Z</time>
      </trkpt>
      <trkpt lat="43.89438" lon="2.09227">
        <ele>231</ele>
        <time>2018-12-12T12:51:21.000Z</time>
      </trkpt>
      <trkpt lat="43.89435" lon="2.09277">
        <ele>232.5</ele>
        <time>2018-12-12T12:52:00.000Z</time>
      </trkpt>
      <trkpt lat="43.894" lon="2.09294">
        <ele>236.1</ele>
        <time>2018-12-12T12:52:37.000Z</time>
      </trkpt>
      <trkpt lat="43.89364" lon="2.09289">
        <ele>241.3</ele>
        <time>2018-12-12T12:53:22.000Z</time>
      </trkpt>
      <trkpt lat="43.89329" lon="2.09306">
        <ele>245.4</ele>
        <time>2018-12-12T12:54:02.000Z</time>
      </trkpt>
      <trkpt lat="43.89293" lon="2.09308">
        <ele>250.4</ele>
        <time>2018-12-12T12:54:47.000Z</time>
      </trkpt>
      <trkpt lat="43.89257" lon="2.09307">
        <ele>255.6</ele>
        <time>2018-12-12T12:55:32.000Z</time>
      </trkpt>
      <trkpt lat="43.89222" lon="2.09295">
        <ele>262.3</ele>
        <time>2018-12-12T12:56:56.000Z</time>
      </trkpt>
      <trkpt lat="43.8919" lon="2.09319">
        <ele>261.8</ele>
        <time>2018-12-12T12:57:39.000Z</time>
      </trkpt>
      <trkpt lat="43.89167" lon="2.09359">
        <ele>261.4</ele>
        <time>2018-12-12T12:58:15.000Z</time>
      </trkpt>
      <trkpt lat="43.89143" lon="2.09396">
        <ele>261.3</ele>
        <time>2018-12-12T12:58:44.000Z</time>
      </trkpt>
      <trkpt lat="43.8912" lon="2.09436">
        <ele>262.2</ele>
        <time>2018-12-12T12:59:21.000Z</time>
      </trkpt>
      <trkpt lat="43.89109" lon="2.09484">
        <ele>266.6</ele>
        <time>2018-12-12T13:00:04.000Z</time>
      </trkpt>
      <trkpt lat="43.89103" lon="2.09534">
        <ele>270.1</ele>
        <time>2018-12-12T13:00:39.000Z</time>
      </trkpt>
      <trkpt lat="43.8909" lon="2.09581">
        <ele>273.7</ele>
        <time>2018-12-12T13:01:15.000Z</time>
      </trkpt>
      <trkpt lat="43.89076" lon="2.09627">
        <ele>277.2</ele>
        <time>2018-12-12T13:01:49.000Z</time>
      </trkpt>
      <trkpt lat="43.89067" lon="2.09677">
        <ele>283.1</ele>
        <time>2018-12-12T13:05:00.000Z</time>
      </trkpt>
      <trkpt lat="43.89046" lon="2.09718">
        <ele>284.2</ele>
        <time>2018-12-12T13:05:24.000Z</time>
      </trkpt>
      <trkpt lat="43.89029" lon="2.09764">
        <ele>284.6</ele>
        <time>2018-12-12T13:05:48.000Z</time>
      </trkpt>
      <trkpt lat="43.89019" lon="2.09813">
        <ele>284.3</ele>
        <time>2018-12-12T13:06:19.000Z</time>
      </trkpt>
      <trkpt lat="43.89008" lon="2.0986">
        <ele>283.2</ele>
        <time>2018-12-12T13:06:47.000Z</time>
      </trkpt>
      <trkpt lat="43.88996" lon="2.09909">
        <ele>280.4</ele>
        <time>2018-12-12T13:07:11.000Z</time>
      </trkpt>
      <trkpt lat="43.88997" lon="2.0996">
        <ele>278.1</ele>
        <time>2018-12-12T13:07:34.000Z</time>
      </trkpt>
      <trkpt lat="43.88988" lon="2.10009">
        <ele>276.1</ele>
        <time>2018-12-12T13:07:59.000Z</time>
      </trkpt>
      <trkpt lat="43.88972" lon="2.10055">
        <ele>275</ele>
        <time>2018-12-12T13:08:21.000Z</time>
      </trkpt>
      <trkpt lat="43.88949" lon="2.10093">
        <ele>273.2</ele>
        <time>2018-12-12T13:08:45.000Z</time>
      </trkpt>
      <trkpt lat="43.8894" lon="2.10143">
        <ele>269.9</ele>
        <time>2018-12-12T13:09:14.000Z</time>
      </trkpt>
      <trkpt lat="43.88932" lon="2.10193">
        <ele>267</ele>
        <time>2018-12-12T13:09:41.000Z</time>
      </trkpt>
      <trkpt lat="43.88916" lon="2.10238">
        <ele>263.9</ele>
        <time>2018-12-12T13:10:04.000Z</time>
      </trkpt>
      <trkpt lat="43.88888" lon="2.10272">
        <ele>261.4</ele>
        <time>2018-12-12T13:10:26.000Z</time>
      </trkpt>
      <trkpt lat="43.8886" lon="2.10307">
        <ele>259.6</ele>
        <time>2018-12-12T13:10:51.000Z</time>
      </trkpt>
      <trkpt lat="43.88835" lon="2.10343">
        <ele>257</ele>
        <time>2018-12-12T13:11:27.000Z</time>
      </trkpt>
      <trkpt lat="43.88807" lon="2.10378">
        <ele>256.3</ele>
        <time>2018-12-12T13:11:58.000Z</time>
      </trkpt>
      <trkpt lat="43.88779" lon="2.1041">
        <ele>255.8</ele>
        <time>2018-12-12T13:12:20.000Z</time>
      </trkpt>
      <trkpt lat="43.88748" lon="2.10439">
        <ele>255.5</ele>
        <time>2018-12-12T13:12:45.000Z</time>
      </trkpt>
      <trkpt lat="43.88726" lon="2.1048">
        <ele>255</ele>
        <time>2018-12-12T13:13:17.000Z</time>
      </trkpt>
      <trkpt lat="43.887" lon="2.10516">
        <ele>254.7</ele>
        <time>2018-12-12T13:13:40.000Z</time>
      </trkpt>
      <trkpt lat="43.88698" lon="2.10566">
        <ele>252.5</ele>
        <time>2018-12-12T13:14:18.000Z</time>
      </trkpt>
      <trkpt lat="43.88716" lon="2.10611">
        <ele>250.8</ele>
        <time>2018-12-12T13:14:50.000Z</time>
      </trkpt>
      <trkpt lat="43.88734" lon="2.10656">
        <ele>250.1</ele>
        <time>2018-12-12T13:15:24.000Z</time>
      </trkpt>
      <trkpt lat="43.88753" lon="2.107">
        <ele>249.9</ele>
        <time>2018-12-12T13:15:56.000Z</time>
      </trkpt>
      <trkpt lat="43.8877" lon="2.10744">
        <ele>250.3</ele>
        <time>2018-12-12T13:16:27.000Z</time>
      </trkpt>
      <trkpt lat="43.88788" lon="2.10788">
        <ele>251.2</ele>
        <time>2018-12-12T13:17:02.000Z</time>
      </trkpt>
      <trkpt lat="43.88809" lon="2.10831">
        <ele>253.7</ele>
        <time>2018-12-12T13:17:41.000Z</time>
      </trkpt>
      <trkpt lat="43.88802" lon="2.10782">
        <ele>255.4</ele>
        <time>2018-12-12T13:20:28.000Z</time>
      </trkpt>
      <trkpt lat="43.88823" lon="2.1074">
        <ele>254</ele>
        <time>2018-12-12T13:20:57.000Z</time>
      </trkpt>
      <trkpt lat="43.88838" lon="2.10693">
        <ele>252.4</ele>
        <time>2018-12-12T13:21:26.000Z</time>
      </trkpt>
      <trkpt lat="43.88869" lon="2.10667">
        <ele>250.6</ele>
        <time>2018-12-12T13:21:55.000Z</time>
      </trkpt>
      <trkpt lat="43.88898" lon="2.10696">
        <ele>249.8</ele>
        <time>2018-12-12T13:22:44.000Z</time>
      </trkpt>
      <trkpt lat="43.88931" lon="2.10718">
        <ele>250.4</ele>
        <time>2018-12-12T13:23:16.000Z</time>
      </trkpt>
      <trkpt lat="43.88966" lon="2.10737">
        <ele>251.5</ele>
        <time>2018-12-12T13:23:49.000Z</time>
      </trkpt>
      <trkpt lat="43.89" lon="2.10754">
        <ele>254.6</ele>
        <time>2018-12-12T13:24:25.000Z</time>
      </trkpt>
      <trkpt lat="43.89034" lon="2.10772">
        <ele>260.5</ele>
        <time>2018-12-12T13:25:08.000Z</time>
      </trkpt>
      <trkpt lat="43.89064" lon="2.10743">
        <ele>267</ele>
        <time>2018-12-12T13:26:10.000Z</time>
      </trkpt>
      <trkpt lat="43.89073" lon="2.10694">
        <ele>266.8</ele>
        <time>2018-12-12T13:26:42.000Z</time>
      </trkpt>
      <trkpt lat="43.89098" lon="2.10656">
        <ele>266.7</ele>
        <time>2018-12-12T13:27:10.000Z</time>
      </trkpt>
      <trkpt lat="43.89129" lon="2.10629">
        <ele>267.4</ele>
        <time>2018-12-12T13:27:38.000Z</time>
      </trkpt>
      <trkpt lat="43.89157" lon="2.10598">
        <ele>269.8</ele>
        <time>2018-12-12T13:28:10.000Z</time>
      </trkpt>
      <trkpt lat="43.89188" lon="2.10571">
        <ele>271.1</ele>
        <time>2018-12-12T13:28:40.000Z</time>
      </trkpt>
      <trkpt lat="43.89217" lon="2.10539">
        <ele>270.5</ele>
        <time>2018-12-12T13:29:13.000Z</time>
      </trkpt>
      <trkpt lat="43.89248" lon="2.10511">
        <ele>268.9</ele>
        <time>2018-12-12T13:29:41.000Z</time>
      </trkpt>
      <trkpt lat="43.89276" lon="2.10479">
        <ele>268.9</ele>
        <time>2018-12-12T13:30:12.000Z</time>
      </trkpt>
      <trkpt lat="43.89307" lon="2.10452">
        <ele>270.8</ele>
        <time>2018-12-12T13:30:41.000Z</time>
      </trkpt>
      <trkpt lat="43.89337" lon="2.10423">
        <ele>274.3</ele>
        <time>2018-12-12T13:31:11.000Z</time>
      </trkpt>
      <trkpt lat="43.89361" lon="2.10385">
        <ele>274.4</ele>
        <time>2018-12-12T13:31:45.000Z</time>
      </trkpt>
      <trkpt lat="43.89385" lon="2.10346">
        <ele>271</ele>
        <time>2018-12-12T13:32:15.000Z</time>
      </trkpt>
      <trkpt lat="43.89409" lon="2.10307">
        <ele>266.5</ele>
        <time>2018-12-12T13:32:48.000Z</time>
      </trkpt>
      <trkpt lat="43.89437" lon="2.10275">
        <ele>263</ele>
        <time>2018-12-12T13:33:17.000Z</time>
      </trkpt>
      <trkpt lat="43.89466" lon="2.10246">
        <ele>258.2</ele>
        <time>2018-12-12T13:33:53.000Z</time>
      </trkpt>
      <trkpt lat="43.89494" lon="2.10278">
        <ele>251.7</ele>
        <time>2018-12-12T13:34:44.000Z</time>
      </trkpt>
      <trkpt lat="43.89503" lon="2.10328">
        <ele>247.9</ele>
        <time>2018-12-12T13:35:19.000Z</time>
      </trkpt>
      <trkpt lat="43.89517" lon="2.10375">
        <ele>246.9</ele>
        <time>2018-12-12T13:36:14.000Z</time>
      </trkpt>
      <trkpt lat="43.89519" lon="2.10426">
        <ele>249.4</ele>
        <time>2018-12-12T13:36:48.000Z</time>
      </trkpt>
      <trkpt lat="43.89527" lon="2.10474">
        <ele>251.2</ele>
        <time>2018-12-12T13:37:20.000Z</time>
      </trkpt>
      <trkpt lat="43.89524" lon="2.10525">
        <ele>252.5</ele>
        <time>2018-12-12T13:38:01.000Z</time>
      </trkpt>
      <trkpt lat="43.89533" lon="2.10574">
        <ele>253.9</ele>
        <time>2018-12-12T13:38:34.000Z</time>
      </trkpt>
      <trkpt lat="43.89542" lon="2.10624">
        <ele>255.6</ele>
        <time>2018-12-12T13:39:04.000Z</time>
      </trkpt>
      <trkpt lat="43.89535" lon="2.10674">
        <ele>257.3</ele>
        <time>2018-12-12T13:39:35.000Z</time>
      </trkpt>
      <trkpt lat="43.8952" lon="2.1072">
        <ele>259</ele>
        <time>2018-12-12T13:40:06.000Z</time>
      </trkpt>
      <trkpt lat="43.89504" lon="2.10768">
        <ele>259.6</ele>
        <time>2018-12-12T13:40:38.000Z</time>
      </trkpt>
      <trkpt lat="43.89481" lon="2.10807">
        <ele>259.5</ele>
        <time>2018-12-12T13:41:01.000Z</time>
      </trkpt>
      <trkpt lat="43.89457" lon="2.10848">
        <ele>259</ele>
        <time>2018-12-12T13:41:28.000Z</time>
      </trkpt>
      <trkpt lat="43.89434" lon="2.10886">
        <ele>256.6</ele>
        <time>2018-12-12T13:41:56.000Z</time>
      </trkpt>
      <trkpt lat="43.89414" lon="2.10929">
        <ele>253.3</ele>
        <time>2018-12-12T13:42:28.000Z</time>
      </trkpt>
      <trkpt lat="43.89399" lon="2.10974">
        <ele>251.8</ele>
        <time>2018-12-12T13:42:57.000Z</time>
      </trkpt>
      <trkpt lat="43.89372" lon="2.1101">
        <ele>251.4</ele>
        <time>2018-12-12T13:43:23.000Z</time>
      </trkpt>
      <trkpt lat="43.8935" lon="2.1105">
        <ele>251.2</ele>
        <time>2018-12-12T13:43:54.000Z</time>
      </trkpt>
      <trkpt lat="43.89319" lon="2.11075">
        <ele>251.1</ele>
        <time>2018-12-12T13:44:20.000Z</time>
      </trkpt>
      <trkpt lat="43.89294" lon="2.11114">
        <ele>249.9</ele>
        <time>2018-12-12T13:44:54.000Z</time>
      </trkpt>
      <trkpt lat="43.89287" lon="2.11164">
        <ele>245.2</ele>
        <time>2018-12-12T13:47:56.000Z</time>
      </trkpt>
      <trkpt lat="43.89318" lon="2.1119">
        <ele>242.4</ele>
        <time>2018-12-12T13:48:41.000Z</time>
      </trkpt>
      <trkpt lat="43.89354" lon="2.11181">
        <ele>239.2</ele>
        <time>2018-12-12T13:49:19.000Z</time>
      </trkpt>
      <trkpt lat="43.89389" lon="2.11169">
        <ele>236.1</ele>
        <time>2018-12-12T13:49:51.000Z</time>
      </trkpt>
      <trkpt lat="43.89416" lon="2.11134">
        <ele>234.1</ele>
        <time>2018-12-12T13:50:22.000Z</time>
      </trkpt>
      <trkpt lat="43.89451" lon="2.11121">
        <ele>231.9</ele>
        <time>2018-12-12T13:50:51.000Z</time>
      </trkpt>
      <trkpt lat="43.89486" lon="2.11133">
        <ele>230.5</ele>
        <time>2018-12-12T13:51:25.000Z</time>
      </trkpt>
      <trkpt lat="43.89515" lon="2.11163">
        <ele>231.7</ele>
        <time>2018-12-12T13:51:58.000Z</time>
      </trkpt>
      <trkpt lat="43.89551" lon="2.11172">
        <ele>232.6</ele>
        <time>2018-12-12T13:52:31.000Z</time>
      </trkpt>
      <trkpt lat="43.89587" lon="2.11173">
        <ele>231.4</ele>
        <time>2018-12-12T13:53:04.000Z</time>
      </trkpt>
      <trkpt lat="43.89623" lon="2.11178">
        <ele>225.9</ele>
        <time>2018-12-12T13:53:41.000Z</time>
      </trkpt>
      <trkpt lat="43.89659" lon="2.11175">
        <ele>219.4</ele>
        <time>2018-12-12T13:54:17.000Z</time>
      </trkpt>
      <trkpt lat="43.89696" lon="2.11183">
        <ele>213</ele>
        <time>2018-12-12T13:54:54.000Z</time>
      </trkpt>
      <trkpt lat="43.89729" lon="2.11205">
        <ele>207.7</ele>
        <time>2018-12-12T13:55:29.000Z</time>
      </trkpt>
      <trkpt lat="43.89763" lon="2.11222">
        <ele>203.8</ele>
        <time>2018-12-12T13:55:57.000Z</time>
      </trkpt>
      <trkpt lat="43.89799" lon="2.11234">
        <ele>200.4</ele>
        <time>2018-12-12T13:56:28.000Z</time>
      </trkpt>
      <trkpt lat="43.89836" lon="2.11227">
        <ele>198.1</ele>
        <time>2018-12-12T13:57:02.000Z</time>
      </trkpt>
      <trkpt lat="43.89872" lon="2.11237">
        <ele>197.2</ele>
        <time>2018-12-12T13:57:39.000Z</time>
      </trkpt>
      <trkpt lat="43.89908" lon="2.11236">
        <ele>198.9</ele>
        <time>2018-12-12T13:58:17.000Z</time>
      </trkpt>
      <trkpt lat="43.89938" lon="2.11206">
        <ele>200.8</ele>
        <time>2018-12-12T13:58:47.000Z</time>
      </trkpt>
      <trkpt lat="43.89966" lon="2.11174">
        <ele>203.1</ele>
        <time>2018-12-12T13:59:22.000Z</time>
      </trkpt>
      <trkpt lat="43.89996" lon="2.11146">
        <ele>205.5</ele>
        <time>2018-12-12T13:59:54.000Z</time>
      </trkpt>
      <trkpt lat="43.90029" lon="2.11124">
        <ele>207.7</ele>
        <time>2018-12-12T14:00:22.000Z</time>
      </trkpt>
      <trkpt lat="43.90061" lon="2.11098">
        <ele>211</ele>
        <time>2018-12-12T14:00:51.000Z</time>
      </trkpt>
      <trkpt lat="43.90091" lon="2.11069">
        <ele>213.8</ele>
        <time>2018-12-12T14:01:22.000Z</time>
      </trkpt>
      <trkpt lat="43.90121" lon="2.11041">
        <ele>217.7</ele>
        <time>2018-12-12T14:01:52.000Z</time>
      </trkpt>
      <trkpt lat="43.90143" lon="2.10999">
        <ele>221.4</ele>
        <time>2018-12-12T14:02:23.000Z</time>
      </trkpt>
      <trkpt lat="43.90163" lon="2.10957">
        <ele>225.1</ele>
        <time>2018-12-12T14:02:55.000Z</time>
      </trkpt>
      <trkpt lat="43.90191" lon="2.10925">
        <ele>229.2</ele>
        <time>2018-12-12T14:03:26.000Z</time>
      </trkpt>
      <trkpt lat="43.90221" lon="2.10894">
        <ele>234.3</ele>
        <time>2018-12-12T14:03:56.000Z</time>
      </trkpt>
      <trkpt lat="43.90251" lon="2.10867">
        <ele>238.9</ele>
        <time>2018-12-12T14:04:26.000Z</time>
      </trkpt>
      <trkpt lat="43.90285" lon="2.10845">
        <ele>243.2</ele>
        <time>2018-12-12T14:04:56.000Z</time>
      </trkpt>
      <trkpt lat="43.90321" lon="2.10833">
        <ele>248.4</ele>
        <time>2018-12-12T14:05:26.000Z</time>
      </trkpt>
      <trkpt lat="43.90357" lon="2.10827">
        <ele>250.7</ele>
        <time>2018-12-12T14:05:51.000Z</time>
      </trkpt>
      <trkpt lat="43.90354" lon="2.10877">
        <ele>252.8</ele>
        <time>2018-12-12T14:12:33.000Z</time>
      </trkpt>
      <trkpt lat="43.90324" lon="2.10907">
        <ele>253.8</ele>
        <time>2018-12-12T14:13:04.000Z</time>
      </trkpt>
      <trkpt lat="43.90301" lon="2.10947">
        <ele>255.3</ele>
        <time>2018-12-12T14:13:36.000Z</time>
      </trkpt>
      <trkpt lat="43.90288" lon="2.10995">
        <ele>255.6</ele>
        <time>2018-12-12T14:14:11.000Z</time>
      </trkpt>
      <trkpt lat="43.90278" lon="2.11043">
        <ele>254.9</ele>
        <time>2018-12-12T14:14:42.000Z</time>
      </trkpt>
      <trkpt lat="43.90311" lon="2.11062">
        <ele>245.6</ele>
        <time>2018-12-12T14:16:55.000Z</time>
      </trkpt>
      <trkpt lat="43.90346" lon="2.11048">
        <ele>240.6</ele>
        <time>2018-12-12T14:17:47.000Z</time>
      </trkpt>
      <trkpt lat="43.90375" lon="2.11079">
        <ele>231</ele>
        <time>2018-12-12T14:18:47.000Z</time>
      </trkpt>
      <trkpt lat="43.90395" lon="2.11122">
        <ele>226.4</ele>
        <time>2018-12-12T14:19:15.000Z</time>
      </trkpt>
      <trkpt lat="43.90411" lon="2.11168">
        <ele>222.2</ele>
        <time>2018-12-12T14:19:41.000Z</time>
      </trkpt>
      <trkpt lat="43.9039" lon="2.11212">
        <ele>219.6</ele>
        <time>2018-12-12T14:20:06.000Z</time>
      </trkpt>
      <trkpt lat="43.90389" lon="2.11264">
        <ele>217.7</ele>
        <time>2018-12-12T14:20:40.000Z</time>
      </trkpt>
      <trkpt lat="43.90391" lon="2.11315">
        <ele>214.4</ele>
        <time>2018-12-12T14:21:17.000Z</time>
      </trkpt>
      <trkpt lat="43.90423" lon="2.1134">
        <ele>210.1</ele>
        <time>2018-12-12T14:23:00.000Z</time>
      </trkpt>
      <trkpt lat="43.90459" lon="2.11339">
        <ele>207.6</ele>
        <time>2018-12-12T14:23:41.000Z</time>
      </trkpt>
      <trkpt lat="43.90496" lon="2.11342">
        <ele>207.2</ele>
        <time>2018-12-12T14:24:13.000Z</time>
      </trkpt>
      <trkpt lat="43.90532" lon="2.11333">
        <ele>205.2</ele>
        <time>2018-12-12T14:24:45.000Z</time>
      </trkpt>
      <trkpt lat="43.90567" lon="2.11346">
        <ele>203.7</ele>
        <time>2018-12-12T14:25:15.000Z</time>
      </trkpt>
      <trkpt lat="43.90597" lon="2.11377">
        <ele>202.8</ele>
        <time>2018-12-12T14:25:51.000Z</time>
      </trkpt>
      <trkpt lat="43.90628" lon="2.11405">
        <ele>202.8</ele>
        <time>2018-12-12T14:26:18.000Z</time>
      </trkpt>
      <trkpt lat="43.90664" lon="2.11405">
        <ele>200.7</ele>
        <time>2018-12-12T14:27:02.000Z</time>
      </trkpt>
      <trkpt lat="43.90701" lon="2.11402">
        <ele>196.9</ele>
        <time>2018-12-12T14:27:34.000Z</time>
      </trkpt>
      <trkpt lat="43.90738" lon="2.11395">
        <ele>193.4</ele>
        <time>2018-12-12T14:28:04.000Z</time>
      </trkpt>
      <trkpt lat="43.90758" lon="2.11353">
        <ele>189.1</ele>
        <time>2018-12-12T14:29:26.000Z</time>
      </trkpt>
      <trkpt lat="43.90744" lon="2.11307">
        <ele>188.9</ele>
        <time>2018-12-12T14:29:58.000Z</time>
      </trkpt>
      <trkpt lat="43.90759" lon="2.11261">
        <ele>189.4</ele>
        <time>2018-12-12T14:30:43.000Z</time>
      </trkpt>
      <trkpt lat="43.90796" lon="2.11253">
        <ele>187.4</ele>
        <time>2018-12-12T14:31:14.000Z</time>
      </trkpt>
      <trkpt lat="43.90832" lon="2.1124">
        <ele>185</ele>
        <time>2018-12-12T14:31:48.000Z</time>
      </trkpt>
      <trkpt lat="43.90869" lon="2.11245">
        <ele>182.6</ele>
        <time>2018-12-12T14:32:36.000Z</time>
      </trkpt>
      <trkpt lat="43.9087" lon="2.11246">
        <ele>180.5</ele>
        <time>2018-12-12T14:39:19.000Z</time>
      </trkpt>
    </trkseg>
  </trk>
</gpx>